Aérodrome :
LOGIN :

S'inscrire | Disclaimer

   EN    FR    IT 

 










Légende :    VFR   VFR Marginal   IFR   IFR Intensif   IFR Très Intensif
Visi : 
Plafond : 
>= 8 km
>= 3000ft
5 à 8 km
1000 à 3000 ft
1500m à 5 km
500 à 1000 ft
800 à 1500m
200 à 500 ft
< 800m
< 200 ft
Symboles :   Orages  Brouillard  Fortes neiges  Fortes précipitations  Vent > 20 kt
SIGMETs :   Divers  Orages  Givrage  Turbulence  Onde Orograph.  Cendres Volcan.







- Altitude de l'aérodrome : 3782 ft
- Code IATA : OZZ


GMMZ - Ouarzazate Int.

DERNIER METAR :
  • 161100Z 07004KT 9999 SCT033 OVC100 12/M15 Q1024 NOSIG

METARs EXPIRÉS :
  • 161000Z 09005KT 9999 SCT030 OVC100 10/M13 Q1024 NOSIG
  • 160900Z 09003KT CAVOK 09/M14 Q1024 NOSIG
  • 160800Z 01004KT 9999 FEW030 OVC100 08/M14 Q1023 NOSIG

TAF TAF GMMZ
Valide du 16 à 06h jusqu'au 17 à 12h UTC


160500Z 1606/1712 34005KT 9999 SCT030
PROB30 1609/1621 5000 -RA
Pas de NOTAMs connus pour ce terrain.



MET'MAP, la Météo Aéronautique d'un coup d'oeil ! - Copyright ORBIFLY Décembre 2007 - Disclaimer

ORBIFLY MET'MAP TEAM :

Programmation & Développement : Alexandra Zaïnal
Conception & Développement : Baudouin d'Aumeries
Co-Programmation & Développement : Marc-Olivier Méhu
Soutien technique & logistique : Manuel Goepfert

Contact : metmap@orbifly.com




SOURCES & CREDITS :

   NOAA